Time;durP1;ratioP1;P1;durP2;ratioP2;P2;SDS_P1;SDS_P2;PMS_P1;PMS_P2;Temp;Humidity;BMP_temperature;BMP_pressure;BME280_temperature;BME280_humidity;BME280_pressure;Samples;Min_cycle;Max_cycle;Signal;HPM_P1;HPM_P2
2023/06/19 01:00:47;;;;;;;;;;;19.80;94.90;;;;;;6110273;23;19919;-80
2023/06/19 01:03:29;;;;;;;;;;;19.80;95.50;;;;;;6099387;23;19948;-80
2023/06/19 01:05:59;;;;;;;;;;;19.80;94.90;;;;;;6099406;23;19928;-80
2023/06/19 01:08:44;;;;;;;;;;;19.70;94.80;;;;;;6098506;23;19928;-80
2023/06/19 01:11:14;;;;;;;;;;;19.80;94.60;;;;;;6098208;23;19966;-80
2023/06/19 01:13:59;;;;;;;;;;;19.80;94.50;;;;;;6102191;23;20290;-81
2023/06/19 01:16:27;;;;;;;;;;;19.80;94.40;;;;;;6098788;23;19992;-80
2023/06/19 01:18:54;;;;;;;;;;;19.80;94.60;;;;;;6099454;23;19944;-80
2023/06/19 01:21:21;;;;;;;;;;;19.80;94.50;;;;;;6097670;23;19921;-80
2023/06/19 01:23:48;;;;;;;;;;;19.80;94.20;;;;;;6099661;23;19924;-79
2023/06/19 01:26:18;;;;;;;;;;;19.70;94.20;;;;;;6098556;23;19923;-80
2023/06/19 01:28:45;;;;;;;;;;;19.70;94.30;;;;;;6099655;23;20291;-80
2023/06/19 01:31:15;;;;;;;;;;;19.70;93.20;;;;;;6098988;23;19921;-79
2023/06/19 01:33:42;;;;;;;;;;;19.80;93.50;;;;;;6122955;23;19921;-80
2023/06/19 01:36:10;;;;;;;;;;;19.80;93.00;;;;;;6098794;23;20262;-79
2023/06/19 01:38:37;;;;;;;;;;;19.90;92.20;;;;;;6123843;23;20015;-79
2023/06/19 01:41:04;;;;;;;;;;;19.90;92.10;;;;;;6099509;23;19949;-80
2023/06/19 01:43:31;;;;;;;;;;;19.90;92.00;;;;;;6097898;23;19917;-80
2023/06/19 01:45:58;;;;;;;;;;;20.00;91.90;;;;;;6099335;23;19921;-80
2023/06/19 01:48:26;;;;;;;;;;;20.00;91.50;;;;;;6098299;23;20387;-80
2023/06/19 01:50:53;;;;;;;;;;;20.00;91.40;;;;;;6099323;23;19924;-79
2023/06/19 01:53:19;;;;;;;;;;;20.10;91.30;;;;;;6098100;23;19921;-80
2023/06/19 01:55:46;;;;;;;;;;;20.10;91.00;;;;;;6099292;23;19920;-80
2023/06/19 01:58:13;;;;;;;;;;;20.20;90.70;;;;;;6099419;23;19964;-80
2023/06/19 02:00:40;;;;;;;;;;;20.20;90.50;;;;;;6098402;23;20258;-81
2023/06/19 02:03:06;;;;;;;;;;;20.20;90.80;;;;;;6099113;23;20299;-79
2023/06/19 02:05:34;;;;;;;;;;;20.20;90.20;;;;;;6097972;23;20427;-81
2023/06/19 02:08:01;;;;;;;;;;;20.20;90.30;;;;;;6099230;23;19924;-80
2023/06/19 02:10:27;;;;;;;;;;;20.20;90.40;;;;;;6097885;23;19921;-80
2023/06/19 02:12:54;;;;;;;;;;;20.20;90.20;;;;;;6098383;23;19948;-80
2023/06/19 02:15:21;;;;;;;;;;;20.10;90.50;;;;;;6098058;23;19920;-80
2023/06/19 02:17:48;;;;;;;;;;;20.10;90.50;;;;;;6099353;23;19916;-80
2023/06/19 02:20:15;;;;;;;;;;;20.10;90.10;;;;;;6099377;23;19972;-80
2023/06/19 02:22:42;;;;;;;;;;;20.10;90.00;;;;;;6098365;23;19924;-86
2023/06/19 02:25:09;;;;;;;;;;;20.10;90.10;;;;;;6099480;23;19925;-86
2023/06/19 02:27:35;;;;;;;;;;;20.10;90.00;;;;;;6098279;23;19920;-86
2023/06/19 02:30:03;;;;;;;;;;;20.10;89.80;;;;;;6098188;23;19917;-85
2023/06/19 02:32:29;;;;;;;;;;;20.10;90.00;;;;;;6098954;23;19923;-86
2023/06/19 02:34:57;;;;;;;;;;;20.00;90.30;;;;;;6099303;23;19916;-87
2023/06/19 02:37:24;;;;;;;;;;;20.00;90.40;;;;;;6098510;23;19964;-85
2023/06/19 02:39:50;;;;;;;;;;;20.00;90.60;;;;;;6098888;23;19968;-85
2023/06/19 02:42:17;;;;;;;;;;;19.90;91.00;;;;;;6098996;23;19936;-85
2023/06/19 02:44:45;;;;;;;;;;;19.90;91.10;;;;;;6098468;23;19921;-88
2023/06/19 02:47:12;;;;;;;;;;;19.90;91.20;;;;;;6124004;23;19920;-89
2023/06/19 02:49:38;;;;;;;;;;;19.90;90.90;;;;;;6098380;23;19925;-88
2023/06/19 02:52:06;;;;;;;;;;;19.90;90.50;;;;;;6099034;23;19917;-88
2023/06/19 02:54:32;;;;;;;;;;;19.90;90.30;;;;;;6098674;23;19917;-86
2023/06/19 02:56:59;;;;;;;;;;;20.00;90.60;;;;;;6098984;23;19925;-89
2023/06/19 02:59:26;;;;;;;;;;;20.00;90.30;;;;;;6098628;23;19991;-87
2023/06/19 03:01:53;;;;;;;;;;;20.00;90.20;;;;;;6098998;23;20331;-88
2023/06/19 03:04:20;;;;;;;;;;;20.00;90.60;;;;;;6099235;23;19924;-88
2023/06/19 03:06:46;;;;;;;;;;;19.90;90.80;;;;;;6098044;23;19920;-89
2023/06/19 03:09:13;;;;;;;;;;;19.90;90.50;;;;;;6098978;23;19917;-86
2023/06/19 03:11:40;;;;;;;;;;;19.90;90.40;;;;;;6098445;23;20298;-89
2023/06/19 03:14:07;;;;;;;;;;;19.90;90.00;;;;;;6124595;23;19920;-89
2023/06/19 03:16:34;;;;;;;;;;;20.00;89.80;;;;;;6098182;23;19927;-88
2023/06/19 03:19:01;;;;;;;;;;;20.00;88.90;;;;;;6099136;23;20290;-89
2023/06/19 03:21:28;;;;;;;;;;;20.00;89.20;;;;;;6099767;23;19923;-88
2023/06/19 03:23:55;;;;;;;;;;;20.00;88.60;;;;;;6099057;23;19917;-86
2023/06/19 03:26:22;;;;;;;;;;;20.10;87.70;;;;;;6098954;23;19921;-87
2023/06/19 03:28:49;;;;;;;;;;;20.10;87.30;;;;;;6098638;23;20295;-87
2023/06/19 03:31:16;;;;;;;;;;;20.10;87.00;;;;;;6098783;23;20331;-87
2023/06/19 03:33:43;;;;;;;;;;;20.00;87.40;;;;;;6098250;23;20257;-88
2023/06/19 03:36:10;;;;;;;;;;;20.00;87.70;;;;;;6098642;23;19916;-88
2023/06/19 03:38:37;;;;;;;;;;;20.00;89.00;;;;;;6123325;23;19921;-88
2023/06/19 03:41:04;;;;;;;;;;;19.90;89.10;;;;;;6098685;23;19921;-87
2023/06/19 03:43:30;;;;;;;;;;;19.80;89.70;;;;;;6098252;23;19924;-87
2023/06/19 03:45:57;;;;;;;;;;;19.80;90.30;;;;;;6097528;23;19920;-88
2023/06/19 03:48:24;;;;;;;;;;;19.80;90.30;;;;;;6098915;23;19987;-88
2023/06/19 03:50:51;;;;;;;;;;;19.70;90.50;;;;;;6098063;23;20251;-88
2023/06/19 03:53:18;;;;;;;;;;;19.70;90.60;;;;;;6099906;23;19921;-89
2023/06/19 03:55:45;;;;;;;;;;;19.70;91.00;;;;;;6099594;23;19975;-88
2023/06/19 03:58:12;;;;;;;;;;;19.70;91.10;;;;;;6100718;23;19932;-88
2023/06/19 04:00:39;;;;;;;;;;;19.60;91.10;;;;;;6099530;23;19921;-88
2023/06/19 04:03:05;;;;;;;;;;;19.60;92.10;;;;;;6101101;23;19980;-87
2023/06/19 04:05:32;;;;;;;;;;;19.40;94.90;;;;;;6100075;23;20280;-87
2023/06/19 04:07:59;;;;;;;;;;;19.30;96.00;;;;;;6100840;23;19925;-88
2023/06/19 04:10:26;;;;;;;;;;;19.20;95.70;;;;;;6100691;23;20259;-88
2023/06/19 04:12:55;;;;;;;;;;;19.20;96.60;;;;;;6125640;23;20035;-89
2023/06/19 04:15:22;;;;;;;;;;;19.00;98.10;;;;;;6100664;23;20331;-88
2023/06/19 04:17:49;;;;;;;;;;;19.00;98.50;;;;;;6100429;23;21836;-89
2023/06/19 04:20:16;;;;;;;;;;;18.90;98.40;;;;;;6100700;23;19925;-90
2023/06/19 04:22:42;;;;;;;;;;;18.90;98.20;;;;;;6099686;23;19916;-89
2023/06/19 04:25:12;;;;;;;;;;;18.90;98.30;;;;;;6100764;23;20266;-89
2023/06/19 04:27:39;;;;;;;;;;;18.90;98.10;;;;;;6099092;23;19972;-89
2023/06/19 04:30:06;;;;;;;;;;;18.90;98.40;;;;;;6100876;23;19917;-89
2023/06/19 04:32:34;;;;;;;;;;;18.90;98.20;;;;;;6099361;23;19917;-88
2023/06/19 04:35:02;;;;;;;;;;;18.90;99.10;;;;;;6100884;23;19994;-88
2023/06/19 04:37:29;;;;;;;;;;;18.90;99.10;;;;;;6125685;23;19921;-89
2023/06/19 04:39:56;;;;;;;;;;;18.80;98.80;;;;;;6099558;23;19917;-88
2023/06/19 04:42:23;;;;;;;;;;;18.80;99.70;;;;;;6100468;23;19920;-89
2023/06/19 04:44:49;;;;;;;;;;;18.80;99.90;;;;;;6125075;23;20301;-88
2023/06/19 04:47:17;;;;;;;;;;;18.80;99.90;;;;;;6100158;23;19917;-89
2023/06/19 04:49:44;;;;;;;;;;;18.80;99.40;;;;;;6099778;23;19927;-88
2023/06/19 04:52:11;;;;;;;;;;;18.80;99.00;;;;;;6100184;23;19923;-88
2023/06/19 04:54:38;;;;;;;;;;;18.90;98.60;;;;;;6099451;23;19916;-89
2023/06/19 04:57:05;;;;;;;;;;;18.90;98.00;;;;;;6100043;23;19921;-88
2023/06/19 04:59:32;;;;;;;;;;;19.00;97.90;;;;;;6100714;23;19917;-88
2023/06/19 05:01:59;;;;;;;;;;;19.00;98.00;;;;;;6099453;23;20416;-88
2023/06/19 05:04:26;;;;;;;;;;;19.10;97.70;;;;;;6099900;23;19948;-86
2023/06/19 05:06:52;;;;;;;;;;;19.10;99.40;;;;;;6099356;23;19972;-88
2023/06/19 05:09:19;;;;;;;;;;;19.20;99.90;;;;;;6100078;23;19929;-88
2023/06/19 05:11:46;;;;;;;;;;;19.10;99.90;;;;;;6099486;23;20254;-88
2023/06/19 05:14:14;;;;;;;;;;;19.20;99.90;;;;;;6100085;23;19917;-89
2023/06/19 05:16:41;;;;;;;;;;;19.20;99.80;;;;;;6124719;23;19917;-89
2023/06/19 05:19:08;;;;;;;;;;;19.30;99.80;;;;;;6100356;23;19917;-89
2023/06/19 05:21:35;;;;;;;;;;;19.40;99.40;;;;;;6099392;23;20382;-84
2023/06/19 05:24:02;;;;;;;;;;;19.40;99.30;;;;;;6100253;23;19917;-88
2023/06/19 05:26:29;;;;;;;;;;;19.50;99.50;;;;;;6099843;23;20320;-88
2023/06/19 05:28:56;;;;;;;;;;;19.50;99.90;;;;;;6099168;23;20302;-87
2023/06/19 05:31:23;;;;;;;;;;;19.60;98.10;;;;;;6099741;23;20339;-87
2023/06/19 05:33:49;;;;;;;;;;;19.70;94.70;;;;;;6098934;23;19976;-88
2023/06/19 05:36:16;;;;;;;;;;;19.80;93.20;;;;;;6099891;23;19916;-87
2023/06/19 05:38:43;;;;;;;;;;;20.00;92.30;;;;;;6123777;23;19975;-87
2023/06/19 05:41:10;;;;;;;;;;;20.00;92.00;;;;;;6099872;23;19927;-86
2023/06/19 05:43:36;;;;;;;;;;;20.10;91.50;;;;;;6099524;23;19965;-88
2023/06/19 05:46:03;;;;;;;;;;;20.10;91.50;;;;;;6124544;23;20299;-89
2023/06/19 05:48:30;;;;;;;;;;;20.20;91.40;;;;;;6099569;23;19967;-88
2023/06/19 05:50:57;;;;;;;;;;;20.20;91.30;;;;;;6099417;23;19917;-87
2023/06/19 05:53:24;;;;;;;;;;;20.20;91.80;;;;;;6099131;23;19920;-86
2023/06/19 05:55:50;;;;;;;;;;;20.20;91.50;;;;;;6123843;23;19966;-87
2023/06/19 05:58:19;;;;;;;;;;;20.30;91.00;;;;;;6099457;23;19925;-86
2023/06/19 06:00:47;;;;;;;;;;;20.30;91.30;;;;;;6098448;23;20236;-86
2023/06/19 06:03:14;;;;;;;;;;;20.40;91.10;;;;;;6099209;23;19992;-86
2023/06/19 06:05:41;;;;;;;;;;;20.40;90.70;;;;;;6097952;23;19917;-85
2023/06/19 06:08:07;;;;;;;;;;;20.50;91.60;;;;;;6098305;23;19968;-87
2023/06/19 06:10:34;;;;;;;;;;;20.60;90.10;;;;;;6098734;23;19972;-87
2023/06/19 06:13:01;;;;;;;;;;;20.60;90.40;;;;;;6098737;23;20255;-85
2023/06/19 06:15:28;;;;;;;;;;;20.70;90.60;;;;;;6099105;23;19916;-89
2023/06/19 06:17:55;;;;;;;;;;;20.80;90.80;;;;;;6098298;23;19921;-87
2023/06/19 06:20:22;;;;;;;;;;;20.90;88.70;;;;;;6097940;23;19916;-86
2023/06/19 06:22:49;;;;;;;;;;;21.00;88.50;;;;;;6097929;23;19944;-86
2023/06/19 06:25:16;;;;;;;;;;;21.00;88.80;;;;;;6098568;23;19917;-84
2023/06/19 06:27:42;;;;;;;;;;;21.10;89.70;;;;;;6098701;23;19917;-85
2023/06/19 06:30:11;;;;;;;;;;;21.10;90.10;;;;;;6099127;23;19925;-85
2023/06/19 06:32:38;;;;;;;;;;;21.20;90.10;;;;;;6099380;23;19968;-85
2023/06/19 06:35:05;;;;;;;;;;;21.30;87.20;;;;;;6098211;23;19916;-88
2023/06/19 06:37:32;;;;;;;;;;;21.40;88.60;;;;;;6099379;23;19968;-87
2023/06/19 06:39:59;;;;;;;;;;;21.40;88.10;;;;;;6098121;23;19927;-87
2023/06/19 06:42:26;;;;;;;;;;;21.40;86.70;;;;;;6124733;23;19992;-87
2023/06/19 06:44:52;;;;;;;;;;;21.50;86.30;;;;;;6098320;23;19917;-87
2023/06/19 06:47:20;;;;;;;;;;;21.50;86.00;;;;;;6098648;23;19925;-86
2023/06/19 06:49:46;;;;;;;;;;;21.60;89.40;;;;;;6097975;23;19923;-86
2023/06/19 06:52:13;;;;;;;;;;;21.80;88.90;;;;;;6099522;23;19941;-86
2023/06/19 06:54:40;;;;;;;;;;;21.80;88.80;;;;;;6099316;23;19920;-86
2023/06/19 06:57:07;;;;;;;;;;;22.00;88.50;;;;;;6098482;23;19924;-86
2023/06/19 06:59:33;;;;;;;;;;;22.10;88.40;;;;;;6099517;23;20422;-86
2023/06/19 07:02:00;;;;;;;;;;;22.10;88.30;;;;;;6098237;23;19921;-86
2023/06/19 07:04:27;;;;;;;;;;;22.20;87.10;;;;;;6099717;23;19964;-86
2023/06/19 07:06:54;;;;;;;;;;;22.30;88.20;;;;;;6098391;23;19948;-84
2023/06/19 07:09:21;;;;;;;;;;;22.40;89.80;;;;;;6098963;23;19917;-84
2023/06/19 07:11:48;;;;;;;;;;;22.60;87.00;;;;;;6098731;23;20266;-85
2023/06/19 07:14:18;;;;;;;;;;;22.60;85.50;;;;;;6099647;23;19944;-86
2023/06/19 07:16:45;;;;;;;;;;;22.70;83.60;;;;;;6098334;23;20258;-85
2023/06/19 07:19:13;;;;;;;;;;;22.80;80.10;;;;;;6099479;23;19952;-85
2023/06/19 07:21:40;;;;;;;;;;;22.90;79.40;;;;;;6099630;23;19921;-86
2023/06/19 07:24:07;;;;;;;;;;;23.00;77.70;;;;;;6098297;23;19921;-85
2023/06/19 07:26:35;;;;;;;;;;;23.10;76.30;;;;;;6099610;23;19921;-86
2023/06/19 07:29:02;;;;;;;;;;;23.20;79.90;;;;;;6099361;23;19917;-86
2023/06/19 07:31:28;;;;;;;;;;;23.40;80.80;;;;;;6101376;23;20228;-85
2023/06/19 07:33:55;;;;;;;;;;;23.60;80.70;;;;;;6100315;23;19917;-85
2023/06/19 07:36:22;;;;;;;;;;;23.70;78.20;;;;;;6101134;23;19920;-85
2023/06/19 07:38:49;;;;;;;;;;;23.90;75.70;;;;;;6099949;23;19940;-84
2023/06/19 07:41:16;;;;;;;;;;;24.00;74.60;;;;;;6101250;23;20255;-85
2023/06/19 07:43:42;;;;;;;;;;;24.10;71.90;;;;;;6100626;23;19921;-84
2023/06/19 07:46:09;;;;;;;;;;;24.30;72.40;;;;;;6100176;23;19921;-85
2023/06/19 07:48:37;;;;;;;;;;;24.40;69.20;;;;;;6100712;23;19917;-85
2023/06/19 07:51:03;;;;;;;;;;;24.50;68.20;;;;;;6100161;23;19916;-85
2023/06/19 07:53:30;;;;;;;;;;;24.60;69.10;;;;;;6099995;23;19924;-85
2023/06/19 07:55:57;;;;;;;;;;;24.80;68.90;;;;;;6100138;23;20220;-85
2023/06/19 07:58:24;;;;;;;;;;;24.90;66.80;;;;;;6100532;23;19928;-85
2023/06/19 08:00:51;;;;;;;;;;;25.10;68.50;;;;;;6099735;23;19927;-84
2023/06/19 08:03:17;;;;;;;;;;;25.10;65.10;;;;;;6100986;23;19975;-85
2023/06/19 08:05:44;;;;;;;;;;;25.30;65.60;;;;;;6100855;23;19920;-85
2023/06/19 08:08:12;;;;;;;;;;;25.40;65.60;;;;;;6100054;23;19921;-84
2023/06/19 08:10:39;;;;;;;;;;;25.50;64.60;;;;;;6101035;23;19916;-85
2023/06/19 08:13:05;;;;;;;;;;;25.50;63.00;;;;;;6099709;23;20258;-85
2023/06/19 08:15:32;;;;;;;;;;;25.30;63.00;;;;;;6100806;23;19941;-85
2023/06/19 08:17:59;;;;;;;;;;;25.20;63.10;;;;;;6099637;23;19921;-84
2023/06/19 08:20:26;;;;;;;;;;;25.30;65.40;;;;;;6101155;23;19953;-85
2023/06/19 08:22:53;;;;;;;;;;;25.30;64.70;;;;;;6124940;23;19963;-85
2023/06/19 08:25:20;;;;;;;;;;;25.50;65.90;;;;;;6100542;23;19917;-84
2023/06/19 08:27:47;;;;;;;;;;;25.60;65.30;;;;;;6125944;23;19964;-85
2023/06/19 08:30:14;;;;;;;;;;;25.70;64.70;;;;;;6124935;23;19920;-84
2023/06/19 08:32:40;;;;;;;;;;;25.90;66.60;;;;;;6100711;23;19924;-85
2023/06/19 08:35:07;;;;;;;;;;;26.10;65.00;;;;;;6124853;23;19916;-84
2023/06/19 08:37:34;;;;;;;;;;;26.30;64.40;;;;;;6100649;23;19921;-85
2023/06/19 08:40:02;;;;;;;;;;;26.40;63.70;;;;;;6099181;23;20263;-85
2023/06/19 08:42:30;;;;;;;;;;;26.30;61.30;;;;;;6100322;23;19924;-84
2023/06/19 08:44:57;;;;;;;;;;;26.40;62.30;;;;;;6124074;23;19988;-85
2023/06/19 08:47:28;;;;;;;;;;;26.60;62.30;;;;;;6100425;23;19952;-84
2023/06/19 08:49:55;;;;;;;;;;;26.60;60.70;;;;;;6099532;23;19947;-84
2023/06/19 08:52:22;;;;;;;;;;;26.50;60.50;;;;;;6100784;23;19917;-83
2023/06/19 08:54:49;;;;;;;;;;;26.60;61.00;;;;;;6100347;23;19928;-83
2023/06/19 08:57:16;;;;;;;;;;;26.80;61.10;;;;;;6099677;23;20294;-82
2023/06/19 08:59:50;;;;;;;;;;;26.90;61.40;;;;;;6100086;23;20268;-84
2023/06/19 09:02:17;;;;;;;;;;;27.00;59.00;;;;;;6099249;23;19972;-84
2023/06/19 09:04:44;;;;;;;;;;;26.90;57.40;;;;;;6100235;23;20030;-84
2023/06/19 09:07:12;;;;;;;;;;;27.10;59.90;;;;;;6099690;23;19925;-83
2023/06/19 09:09:44;;;;;;;;;;;27.30;58.50;;;;;;6100232;23;19949;-83
2023/06/19 09:12:12;;;;;;;;;;;27.20;57.50;;;;;;6098929;23;20232;-83
2023/06/19 09:14:43;;;;;;;;;;;27.30;55.60;;;;;;6100133;23;19920;-84
2023/06/19 09:17:11;;;;;;;;;;;27.20;56.00;;;;;;6099237;23;20247;-83
2023/06/19 09:19:39;;;;;;;;;;;27.20;55.10;;;;;;6099830;23;19923;-83
2023/06/19 09:22:07;;;;;;;;;;;27.30;55.70;;;;;;6099032;23;19999;-83
2023/06/19 09:24:36;;;;;;;;;;;27.40;56.30;;;;;;6100020;23;19963;-85
2023/06/19 09:27:07;;;;;;;;;;;27.50;55.30;;;;;;6099451;23;19968;-87
2023/06/19 09:29:40;;;;;;;;;;;27.70;56.10;;;;;;6100468;23;19921;-85
2023/06/19 09:32:17;;;;;;;;;;;27.90;56.00;;;;;;6098854;23;19917;-86
2023/06/19 09:34:44;;;;;;;;;;;28.00;54.60;;;;;;6100763;23;19921;-88
2023/06/19 09:37:11;;;;;;;;;;;28.10;54.80;;;;;;6098782;23;19927;-86
2023/06/19 09:39:38;;;;;;;;;;;28.30;55.00;;;;;;6100180;23;19923;-84
2023/06/19 09:42:09;;;;;;;;;;;28.40;54.30;;;;;;6098948;23;19983;-85
2023/06/19 09:44:42;;;;;;;;;;;28.40;54.50;;;;;;6099142;23;19920;-86
2023/06/19 09:47:20;;;;;;;;;;;28.40;52.80;;;;;;6100738;23;20232;-88
2023/06/19 09:49:54;;;;;;;;;;;28.30;53.70;;;;;;6100268;23;19916;-87
2023/06/19 09:52:23;;;;;;;;;;;28.40;54.50;;;;;;6099466;23;19917;-87
2023/06/19 09:54:53;;;;;;;;;;;28.50;54.70;;;;;;6099806;23;19917;-87
2023/06/19 09:57:21;;;;;;;0.00;0.00;;;28.50;53.60;;;;;;6098007;23;20228;-88
2023/06/19 09:59:52;;;;;;;0.00;0.00;;;28.60;54.70;;;;;;6098679;23;20034;-87
2023/06/19 10:02:20;;;;;;;;;;;28.80;54.10;;;;;;6098231;23;20033;-88
2023/06/19 10:04:52;;;;;;;;;;;29.00;54.60;;;;;;6125037;23;19943;-86
2023/06/19 10:07:20;;;;;;;;;;;29.10;52.50;;;;;;6099068;23;19972;-83
2023/06/19 10:10:01;;;;;;;;;;;29.30;52.30;;;;;;6099255;23;20328;-82
2023/06/19 10:12:48;;;;;;;;;;;29.10;50.40;;;;;;6098239;23;20248;-84
2023/06/19 10:15:16;;;;;;;;;;;29.20;51.70;;;;;;6098641;23;19927;-83
2023/06/19 10:17:45;;;;;;;;;;;29.30;52.00;;;;;;6099041;23;19923;-84
2023/06/19 10:20:25;;;;;;;;;;;29.60;52.10;;;;;;6098391;23;19921;-86
2023/06/19 10:22:53;;;;;;;;;;;29.80;51.00;;;;;;6099194;23;20290;-87
2023/06/19 10:25:22;;;;;;;0.00;0.00;;;29.60;50.30;;;;;;6098347;23;19920;-86
2023/06/19 10:27:52;;;;;;;0.00;0.00;;;29.80;51.60;;;;;;6099062;23;20030;-87
2023/06/19 10:30:19;;;;;;;0.00;0.00;;;30.00;50.50;;;;;;6098318;23;20129;-84
2023/06/19 10:32:48;;;;;;;0.00;0.00;;;30.20;49.20;;;;;;6099321;23;20049;-85
2023/06/19 10:35:17;;;;;;;0.00;0.00;;;30.20;49.30;;;;;;6098108;23;20364;-86
2023/06/19 10:37:44;;;;;;;0.00;0.00;;;30.40;50.30;;;;;;6099179;23;20022;-86
2023/06/19 10:40:12;;;;;;;0.00;0.00;;;30.50;50.00;;;;;;6097927;23;20089;-86
2023/06/19 10:42:40;;;;;;;0.00;0.00;;;30.70;49.30;;;;;;6099023;23;20093;-86
2023/06/19 10:45:17;;;;;;;;;;;30.90;48.90;;;;;;6098310;23;20026;-87
2023/06/19 10:47:45;;;;;;;;;;;30.80;49.10;;;;;;6099446;23;19920;-88
2023/06/19 10:50:15;;;;;;;;;;;30.80;48.90;;;;;;6098389;23;20322;-89
2023/06/19 10:52:44;;;;;;;0.00;0.00;;;31.00;48.10;;;;;;6098587;23;19945;-88
2023/06/19 10:55:12;;;;;;;0.00;0.00;;;31.10;46.20;;;;;;6097486;23;20033;-88
2023/06/19 10:57:44;;;;;;;0.00;0.00;;;31.20;47.70;;;;;;6098988;23;20037;-88
2023/06/19 11:00:14;;;;;;;;;;;31.30;47.70;;;;;;6098225;23;20037;-87
2023/06/19 11:02:43;;;;;;;;;;;31.40;46.80;;;;;;6124249;23;19988;-89
2023/06/19 11:05:11;;;;;;;;;;;31.60;46.60;;;;;;6098329;23;19924;-87
2023/06/19 11:07:38;;;;;;;;;;;31.80;45.10;;;;;;6099859;23;19980;-85
2023/06/19 11:10:05;;;;;;;;;;;31.80;45.30;;;;;;6099253;23;20301;-87
2023/06/19 11:12:35;;;;;;;;;;;31.80;45.40;;;;;;6123484;23;19917;-88
2023/06/19 11:15:03;;;;;;;;;;;32.00;45.50;;;;;;6098501;23;19921;-89
2023/06/19 11:17:30;;;;;;;;;;;32.20;43.80;;;;;;6123970;23;19956;-88
2023/06/19 11:19:59;;;;;;;;;;;32.10;43.80;;;;;;6099440;23;19921;-87
2023/06/19 11:22:52;;;;;;;;;;;32.00;43.60;;;;;;6097756;23;19987;-87
2023/06/19 11:25:20;;;;;;;;;;;31.70;43.40;;;;;;6095583;23;19940;-88
2023/06/19 11:27:51;;;;;;;;;;;31.60;45.40;;;;;;6123789;23;20303;-89
2023/06/19 11:30:20;;;;;;;;;;;31.80;47.90;;;;;;6123583;23;20287;-88
2023/06/19 11:32:50;;;;;;;0.00;0.00;;;31.40;44.60;;;;;;6099105;23;19921;-89
2023/06/19 11:35:17;;;;;;;0.00;0.00;;;31.10;46.10;;;;;;6097905;23;20037;-88
2023/06/19 11:37:44;;;;;;;0.00;0.00;;;31.20;46.60;;;;;;6098199;23;20058;-88
2023/06/19 11:40:23;;;;;;;0.00;0.00;;;31.20;46.80;;;;;;6096662;23;20826;-89
2023/06/19 11:42:53;;;;;;;0.00;0.00;;;31.00;45.10;;;;;;6097906;23;20740;-91
2023/06/19 11:45:21;;;;;;;0.00;0.00;;;30.90;46.40;;;;;;6097358;23;20029;-91
2023/06/19 11:47:49;;;;;;;0.00;0.00;;;30.90;47.90;;;;;;6098863;23;20030;-91
2023/06/19 11:50:16;;;;;;;0.00;0.00;;;31.10;47.30;;;;;;6097718;23;20033;-89
2023/06/19 11:52:44;;;;;;;0.00;0.00;;;31.10;47.60;;;;;;6123884;23;20026;-89
2023/06/19 11:55:12;;;;;;;0.00;0.00;;;31.30;48.00;;;;;;6096463;23;20387;-90
2023/06/19 11:57:40;;;;;;;0.00;0.00;;;31.10;45.50;;;;;;6098243;23;20368;-89
2023/06/19 12:00:16;;;;;;;0.00;0.00;;;31.10;46.10;;;;;;6098272;23;20026;-89
2023/06/19 12:02:46;;;;;;;0.00;0.00;;;31.10;47.10;;;;;;6097371;23;20046;-89
2023/06/19 12:05:14;;;;;;;0.00;0.00;;;31.10;45.40;;;;;;6098663;23;20400;-89
2023/06/19 12:07:41;;;;;;;0.00;0.00;;;31.00;45.60;;;;;;6097382;23;20080;-90
2023/06/19 12:10:12;;;;;;;0.00;0.00;;;31.00;46.20;;;;;;6098645;23;20032;-90
2023/06/19 12:12:38;;;;;;;0.00;0.00;;;31.20;45.80;;;;;;6097542;23;20097;-91
2023/06/19 12:15:06;;;;;;;;;;;31.40;46.30;;;;;;6100681;23;20029;-88
2023/06/19 12:17:33;;;;;;;0.00;0.00;;;31.50;44.40;;;;;;6098720;23;19924;-88
2023/06/19 12:20:00;;;;;;;;;;;31.70;45.20;;;;;;6100569;23;20085;-88
2023/06/19 12:22:28;;;;;;;0.00;0.00;;;32.00;45.00;;;;;;6099564;23;19920;-89
2023/06/19 12:24:55;;;;;;;0.00;0.00;;;32.10;44.90;;;;;;6100024;23;20033;-90
2023/06/19 12:27:22;;;;;;;0.00;0.00;;;31.70;43.60;;;;;;6098096;23;20717;-89
2023/06/19 12:29:49;;;;;;;0.00;0.00;;;31.20;44.40;;;;;;6098838;23;20770;-89
2023/06/19 12:32:16;;;;;;;0.00;0.00;;;30.90;45.60;;;;;;6100369;23;20364;-89
2023/06/19 12:34:46;;;;;;;0.00;0.00;;;30.50;45.90;;;;;;6098808;23;20029;-90
2023/06/19 12:37:19;;;;;;;0.00;0.00;;;30.20;46.70;;;;;;6125551;23;20029;-90
2023/06/19 12:39:46;;;;;;;0.00;0.00;;;29.80;47.90;;;;;;6097803;23;20105;-90
2023/06/19 12:42:13;;;;;;;0.00;0.00;;;29.70;48.70;;;;;;6098900;23;20029;-89
2023/06/19 12:44:40;;;;;;;0.00;0.00;;;29.70;49.60;;;;;;6098093;23;20048;-89
2023/06/19 12:47:07;;;;;;;0.00;0.00;;;29.70;49.00;;;;;;6124327;23;20033;-89
2023/06/19 12:49:35;;;;;;;0.00;0.00;;;29.70;50.60;;;;;;6098146;23;20480;-88
2023/06/19 12:52:02;;;;;;;0.00;0.00;;;29.60;48.90;;;;;;6100033;23;20089;-88
2023/06/19 12:54:29;;;;;;;0.00;0.00;;;29.60;49.50;;;;;;6098464;23;20337;-90
2023/06/19 12:56:56;;;;;;;0.00;0.00;;;29.70;49.40;;;;;;6099524;23;20029;-90
2023/06/19 12:59:23;;;;;;;0.00;0.00;;;29.50;49.20;;;;;;6099014;23;20025;-84
2023/06/19 13:01:50;;;;;;;0.00;0.00;;;29.20;49.10;;;;;;6098913;23;20021;-90
2023/06/19 13:04:17;;;;;;;0.00;0.00;;;29.00;49.90;;;;;;6099861;23;20029;-86
2023/06/19 13:06:44;;;;;;;0.00;0.00;;;29.00;49.30;;;;;;6099131;23;20343;-89
2023/06/19 13:09:11;;;;;;;0.00;0.00;;;29.00;50.80;;;;;;6100241;23;20356;-90
2023/06/19 13:11:38;;;;;;;0.00;0.00;;;29.00;51.30;;;;;;6098949;23;20028;-88
2023/06/19 13:14:05;;;;;;;0.00;0.00;;;29.00;50.60;;;;;;6100080;23;20531;-86
2023/06/19 13:16:32;;;;;;;0.00;0.00;;;29.10;51.50;;;;;;6099270;23;20022;-88
2023/06/19 13:19:13;;;;;;;0.00;0.00;;;29.20;51.00;;;;;;6102345;23;20084;-89
2023/06/19 13:21:41;;;;;;;0.00;0.00;;;29.40;50.20;;;;;;6098324;23;20098;-88
2023/06/19 13:24:08;;;;;;;0.00;0.00;;;29.60;50.70;;;;;;6099207;23;20363;-88
2023/06/19 13:26:35;;;;;;;0.00;0.00;;;29.70;51.90;;;;;;6097780;23;20025;-89
2023/06/19 13:29:03;;;;;;;;;;;29.80;49.10;;;;;;6099552;23;20033;-89
2023/06/19 13:31:29;;;;;;;;;;;30.10;50.20;;;;;;6099378;23;19921;-88
2023/06/19 13:33:57;;;;;;;;;;;30.50;49.00;;;;;;6100067;23;19991;-89
2023/06/19 13:36:26;;;;;;;;;;;30.80;47.40;;;;;;6100174;23;20244;-88
2023/06/19 13:38:53;;;;;;;;;;;31.10;48.00;;;;;;6099009;23;19916;-86
2023/06/19 13:41:23;;;;;;;;;;;31.50;47.10;;;;;;6100162;23;19924;-89
2023/06/19 13:43:51;;;;;;;;;;;31.80;45.40;;;;;;6099063;23;20254;-89
2023/06/19 13:46:18;;;;;;;0.00;0.00;;;31.90;42.90;;;;;;6099300;23;19928;-88
2023/06/19 13:48:48;;;;;;;0.00;0.00;;;32.10;44.80;;;;;;6098346;23;20030;-90
2023/06/19 13:51:22;;;;;;;0.00;0.00;;;32.30;45.20;;;;;;6125166;23;20032;-88
2023/06/19 13:53:50;;;;;;;0.00;0.00;;;32.50;45.50;;;;;;6098709;23;21378;-89
2023/06/19 13:56:17;;;;;;;0.00;0.00;;;32.80;45.30;;;;;;6099009;23;20034;-89
2023/06/19 13:58:44;;;;;;;0.00;0.00;;;33.00;44.10;;;;;;6098444;23;20030;-89
2023/06/19 14:01:11;;;;;;;0.00;0.00;;;33.20;43.90;;;;;;6098623;23;20032;-90
2023/06/19 14:03:41;;;;;;;0.00;0.00;;;33.30;42.50;;;;;;6123619;23;20027;-88
2023/06/19 14:06:08;;;;;;;0.00;0.00;;;33.40;43.00;;;;;;6098999;23;20025;-89
2023/06/19 14:08:35;;;;;;;0.00;0.00;;;33.40;42.80;;;;;;6098827;23;20030;-89
2023/06/19 14:11:02;;;;;;;0.00;0.00;;;33.30;43.50;;;;;;6098919;23;20049;-89
2023/06/19 14:13:29;;;;;;;0.00;0.00;;;33.30;42.90;;;;;;6099280;23;20033;-88
2023/06/19 14:15:56;;;;;;;0.00;0.00;;;33.50;42.40;;;;;;6124213;23;20033;-89
2023/06/19 14:18:23;;;;;;;0.00;0.00;;;33.70;42.60;;;;;;6098880;23;20115;-89
2023/06/19 14:20:50;;;;;;;0.00;0.00;;;33.90;42.60;;;;;;6098699;23;20022;-90
2023/06/19 14:23:17;;;;;;;0.00;0.00;;;34.00;41.60;;;;;;6098685;23;20124;-89
2023/06/19 14:25:44;;;;;;;0.00;0.00;;;34.10;41.10;;;;;;6098189;23;20353;-88
2023/06/19 14:28:13;;;;;;;0.00;0.00;;;34.20;41.30;;;;;;6098987;23;20041;-88
2023/06/19 14:30:43;;;;;;;0.00;0.00;;;34.20;40.80;;;;;;6123987;23;20032;-89
2023/06/19 14:33:14;;;;;;;0.00;0.00;;;34.00;41.30;;;;;;6099306;23;20393;-89
2023/06/19 14:35:44;;;;;;;0.00;0.00;;;33.90;41.00;;;;;;6098442;23;20404;-88
2023/06/19 14:38:14;;;;;;;0.00;0.00;;;33.60;40.90;;;;;;6098516;23;20255;-88
2023/06/19 14:40:42;;;;;;;0.00;0.00;;;33.70;41.20;;;;;;6097971;23;20026;-87
2023/06/19 14:43:09;;;;;;;0.00;0.00;;;33.90;41.50;;;;;;6098885;23;20030;-88
2023/06/19 14:45:37;;;;;;;0.00;0.00;;;33.90;40.40;;;;;;6097519;23;20034;-89
2023/06/19 14:48:04;;;;;;;0.00;0.00;;;33.80;40.40;;;;;;6098913;23;20084;-88
2023/06/19 14:50:31;;;;;;;0.00;0.00;;;33.90;41.20;;;;;;6098613;23;20030;-87
2023/06/19 14:52:58;;;;;;;0.00;0.00;;;34.00;40.30;;;;;;6097895;23;20337;-89
2023/06/19 14:55:25;;;;;;;0.00;0.00;;;33.90;39.30;;;;;;6099014;23;20033;-88